sensor_id;sensor_type;location;lat;lon;timestamp;P1;durP1;ratioP1;P2;durP2;ratioP2
77581;SDS011;66726;52.388;9.986;2023-03-13T00:00:28;31.70;;;6.73;;
77581;SDS011;66726;52.388;9.986;2023-03-13T00:03:02;27.37;;;6.37;;
77581;SDS011;66726;52.388;9.986;2023-03-13T00:05:34;26.97;;;7.00;;
77581;SDS011;66726;52.388;9.986;2023-03-13T00:08:05;28.23;;;6.33;;
77581;SDS011;66726;52.388;9.986;2023-03-13T00:10:37;33.83;;;7.13;;
77581;SDS011;66726;52.388;9.986;2023-03-13T00:13:10;27.27;;;6.43;;
77581;SDS011;66726;52.388;9.986;2023-03-13T00:15:43;29.80;;;6.97;;
77581;SDS011;66726;52.388;9.986;2023-03-13T00:18:17;30.03;;;5.90;;
77581;SDS011;66726;52.388;9.986;2023-03-13T00:20:48;29.33;;;6.33;;
77581;SDS011;66726;52.388;9.986;2023-03-13T00:23:24;22.73;;;5.27;;
77581;SDS011;66726;52.388;9.986;2023-03-13T00:25:57;26.50;;;5.77;;
77581;SDS011;66726;52.388;9.986;2023-03-13T00:28:31;29.90;;;6.17;;
77581;SDS011;66726;52.388;9.986;2023-03-13T00:31:05;23.30;;;6.47;;
77581;SDS011;66726;52.388;9.986;2023-03-13T00:33:42;28.20;;;6.40;;
77581;SDS011;66726;52.388;9.986;2023-03-13T00:36:18;31.53;;;6.63;;
77581;SDS011;66726;52.388;9.986;2023-03-13T00:38:52;23.70;;;5.67;;
77581;SDS011;66726;52.388;9.986;2023-03-13T00:41:25;22.23;;;5.83;;
77581;SDS011;66726;52.388;9.986;2023-03-13T00:43:59;22.40;;;6.03;;
77581;SDS011;66726;52.388;9.986;2023-03-13T00:46:31;23.47;;;5.87;;
77581;SDS011;66726;52.388;9.986;2023-03-13T00:49:05;19.77;;;6.00;;
77581;SDS011;66726;52.388;9.986;2023-03-13T00:51:37;24.33;;;5.73;;
77581;SDS011;66726;52.388;9.986;2023-03-13T00:54:09;26.73;;;6.03;;
77581;SDS011;66726;52.388;9.986;2023-03-13T00:56:40;18.43;;;5.03;;
77581;SDS011;66726;52.388;9.986;2023-03-13T00:59:12;31.27;;;7.23;;
77581;SDS011;66726;52.388;9.986;2023-03-13T01:01:45;22.93;;;5.50;;
77581;SDS011;66726;52.388;9.986;2023-03-13T01:04:18;23.63;;;6.63;;
77581;SDS011;66726;52.388;9.986;2023-03-13T01:06:50;24.10;;;5.60;;
77581;SDS011;66726;52.388;9.986;2023-03-13T01:09:22;28.33;;;6.53;;
77581;SDS011;66726;52.388;9.986;2023-03-13T01:11:54;30.77;;;6.43;;
77581;SDS011;66726;52.388;9.986;2023-03-13T01:14:27;21.70;;;5.03;;
77581;SDS011;66726;52.388;9.986;2023-03-13T01:16:59;23.10;;;5.73;;
77581;SDS011;66726;52.388;9.986;2023-03-13T01:19:32;28.53;;;5.40;;
77581;SDS011;66726;52.388;9.986;2023-03-13T01:22:04;21.07;;;5.50;;
77581;SDS011;66726;52.388;9.986;2023-03-13T01:24:37;25.67;;;5.60;;
77581;SDS011;66726;52.388;9.986;2023-03-13T01:27:09;21.90;;;5.67;;
77581;SDS011;66726;52.388;9.986;2023-03-13T01:29:41;21.03;;;5.07;;
77581;SDS011;66726;52.388;9.986;2023-03-13T01:32:13;23.47;;;5.50;;
77581;SDS011;66726;52.388;9.986;2023-03-13T01:34:46;21.07;;;5.30;;
77581;SDS011;66726;52.388;9.986;2023-03-13T01:37:18;20.80;;;5.40;;
77581;SDS011;66726;52.388;9.986;2023-03-13T01:39:50;21.60;;;5.63;;
77581;SDS011;66726;52.388;9.986;2023-03-13T01:42:22;24.27;;;5.60;;
77581;SDS011;66726;52.388;9.986;2023-03-13T01:44:54;30.10;;;6.13;;
77581;SDS011;66726;52.388;9.986;2023-03-13T01:47:27;24.53;;;5.53;;
77581;SDS011;66726;52.388;9.986;2023-03-13T01:50:00;21.50;;;5.57;;
77581;SDS011;66726;52.388;9.986;2023-03-13T01:52:32;22.53;;;5.40;;
77581;SDS011;66726;52.388;9.986;2023-03-13T01:55:06;24.43;;;5.37;;
77581;SDS011;66726;52.388;9.986;2023-03-13T01:57:42;20.13;;;5.00;;
77581;SDS011;66726;52.388;9.986;2023-03-13T02:00:20;19.07;;;5.97;;
77581;SDS011;66726;52.388;9.986;2023-03-13T02:02:57;19.00;;;5.77;;
77581;SDS011;66726;52.388;9.986;2023-03-13T02:05:36;23.80;;;5.93;;
77581;SDS011;66726;52.388;9.986;2023-03-13T02:08:11;20.03;;;5.97;;
77581;SDS011;66726;52.388;9.986;2023-03-13T02:10:48;21.60;;;5.13;;
77581;SDS011;66726;52.388;9.986;2023-03-13T02:13:30;25.97;;;5.70;;
77581;SDS011;66726;52.388;9.986;2023-03-13T02:16:02;24.10;;;5.20;;
77581;SDS011;66726;52.388;9.986;2023-03-13T02:18:37;25.80;;;5.17;;
77581;SDS011;66726;52.388;9.986;2023-03-13T02:21:12;26.70;;;5.97;;
77581;SDS011;66726;52.388;9.986;2023-03-13T02:23:49;23.23;;;5.40;;
77581;SDS011;66726;52.388;9.986;2023-03-13T02:26:30;21.30;;;5.40;;
77581;SDS011;66726;52.388;9.986;2023-03-13T02:29:02;27.30;;;6.10;;
77581;SDS011;66726;52.388;9.986;2023-03-13T02:31:34;28.23;;;6.87;;
77581;SDS011;66726;52.388;9.986;2023-03-13T02:34:06;25.97;;;5.70;;
77581;SDS011;66726;52.388;9.986;2023-03-13T02:36:41;19.83;;;4.97;;
77581;SDS011;66726;52.388;9.986;2023-03-13T02:39:14;23.97;;;4.93;;
77581;SDS011;66726;52.388;9.986;2023-03-13T02:41:51;20.20;;;5.27;;
77581;SDS011;66726;52.388;9.986;2023-03-13T02:44:26;23.47;;;5.10;;
77581;SDS011;66726;52.388;9.986;2023-03-13T02:47:03;21.93;;;5.33;;
77581;SDS011;66726;52.388;9.986;2023-03-13T02:49:36;18.20;;;5.57;;
77581;SDS011;66726;52.388;9.986;2023-03-13T02:52:09;19.80;;;5.80;;
77581;SDS011;66726;52.388;9.986;2023-03-13T02:54:46;23.90;;;5.33;;
77581;SDS011;66726;52.388;9.986;2023-03-13T02:57:25;22.00;;;5.20;;
77581;SDS011;66726;52.388;9.986;2023-03-13T02:59:57;20.87;;;5.23;;
77581;SDS011;66726;52.388;9.986;2023-03-13T03:02:30;16.77;;;4.80;;
77581;SDS011;66726;52.388;9.986;2023-03-13T03:05:01;22.20;;;5.27;;
77581;SDS011;66726;52.388;9.986;2023-03-13T03:07:34;21.03;;;5.20;;
77581;SDS011;66726;52.388;9.986;2023-03-13T03:10:06;25.37;;;5.80;;
77581;SDS011;66726;52.388;9.986;2023-03-13T03:12:40;23.37;;;5.20;;
77581;SDS011;66726;52.388;9.986;2023-03-13T03:15:12;21.47;;;5.33;;
77581;SDS011;66726;52.388;9.986;2023-03-13T03:17:44;18.77;;;4.93;;
77581;SDS011;66726;52.388;9.986;2023-03-13T03:20:16;14.50;;;4.80;;
77581;SDS011;66726;52.388;9.986;2023-03-13T03:22:48;19.27;;;4.93;;
77581;SDS011;66726;52.388;9.986;2023-03-13T03:25:19;18.33;;;5.03;;
77581;SDS011;66726;52.388;9.986;2023-03-13T03:27:53;27.03;;;5.27;;
77581;SDS011;66726;52.388;9.986;2023-03-13T03:30:24;22.70;;;5.37;;
77581;SDS011;66726;52.388;9.986;2023-03-13T03:32:56;21.40;;;6.00;;
77581;SDS011;66726;52.388;9.986;2023-03-13T03:35:30;21.63;;;5.40;;
77581;SDS011;66726;52.388;9.986;2023-03-13T03:38:04;21.83;;;5.50;;
77581;SDS011;66726;52.388;9.986;2023-03-13T03:40:36;23.97;;;4.37;;
77581;SDS011;66726;52.388;9.986;2023-03-13T03:43:09;15.70;;;4.53;;
77581;SDS011;66726;52.388;9.986;2023-03-13T03:45:41;26.50;;;5.33;;
77581;SDS011;66726;52.388;9.986;2023-03-13T03:48:12;19.37;;;4.80;;
77581;SDS011;66726;52.388;9.986;2023-03-13T03:50:44;23.83;;;5.07;;
77581;SDS011;66726;52.388;9.986;2023-03-13T03:53:16;21.13;;;5.33;;
77581;SDS011;66726;52.388;9.986;2023-03-13T03:55:48;18.33;;;5.03;;
77581;SDS011;66726;52.388;9.986;2023-03-13T03:58:21;22.33;;;5.70;;
77581;SDS011;66726;52.388;9.986;2023-03-13T04:00:54;21.83;;;5.70;;
77581;SDS011;66726;52.388;9.986;2023-03-13T04:03:26;20.27;;;4.80;;
77581;SDS011;66726;52.388;9.986;2023-03-13T04:05:58;22.67;;;5.57;;
77581;SDS011;66726;52.388;9.986;2023-03-13T04:08:32;23.33;;;5.37;;
77581;SDS011;66726;52.388;9.986;2023-03-13T04:11:03;20.03;;;4.80;;
77581;SDS011;66726;52.388;9.986;2023-03-13T04:13:36;19.73;;;4.87;;
77581;SDS011;66726;52.388;9.986;2023-03-13T04:16:08;20.70;;;5.23;;
77581;SDS011;66726;52.388;9.986;2023-03-13T04:18:41;22.00;;;5.20;;
77581;SDS011;66726;52.388;9.986;2023-03-13T04:21:13;18.43;;;5.10;;
77581;SDS011;66726;52.388;9.986;2023-03-13T04:23:45;20.07;;;4.77;;
77581;SDS011;66726;52.388;9.986;2023-03-13T04:26:17;24.93;;;5.47;;
77581;SDS011;66726;52.388;9.986;2023-03-13T04:28:50;20.03;;;5.17;;
77581;SDS011;66726;52.388;9.986;2023-03-13T04:31:21;21.23;;;4.53;;
77581;SDS011;66726;52.388;9.986;2023-03-13T04:33:53;19.20;;;4.83;;
77581;SDS011;66726;52.388;9.986;2023-03-13T04:36:25;14.40;;;4.73;;
77581;SDS011;66726;52.388;9.986;2023-03-13T04:38:57;17.73;;;4.80;;
77581;SDS011;66726;52.388;9.986;2023-03-13T04:41:29;22.50;;;5.37;;
77581;SDS011;66726;52.388;9.986;2023-03-13T04:44:02;24.40;;;5.30;;
77581;SDS011;66726;52.388;9.986;2023-03-13T04:46:34;19.57;;;5.27;;
77581;SDS011;66726;52.388;9.986;2023-03-13T04:49:06;20.03;;;6.03;;
77581;SDS011;66726;52.388;9.986;2023-03-13T04:51:39;21.17;;;5.50;;
77581;SDS011;66726;52.388;9.986;2023-03-13T04:54:11;23.97;;;4.77;;
77581;SDS011;66726;52.388;9.986;2023-03-13T04:56:43;20.30;;;5.53;;
77581;SDS011;66726;52.388;9.986;2023-03-13T04:59:16;18.97;;;4.27;;
77581;SDS011;66726;52.388;9.986;2023-03-13T05:01:48;19.97;;;4.77;;
77581;SDS011;66726;52.388;9.986;2023-03-13T05:04:19;22.83;;;4.97;;
77581;SDS011;66726;52.388;9.986;2023-03-13T05:06:51;17.03;;;5.23;;
77581;SDS011;66726;52.388;9.986;2023-03-13T05:09:23;21.00;;;4.80;;
77581;SDS011;66726;52.388;9.986;2023-03-13T05:11:56;23.20;;;5.23;;
77581;SDS011;66726;52.388;9.986;2023-03-13T05:14:29;23.80;;;5.03;;
77581;SDS011;66726;52.388;9.986;2023-03-13T05:17:01;20.13;;;5.37;;
77581;SDS011;66726;52.388;9.986;2023-03-13T05:19:33;21.03;;;5.60;;
77581;SDS011;66726;52.388;9.986;2023-03-13T05:22:04;22.97;;;5.37;;
77581;SDS011;66726;52.388;9.986;2023-03-13T05:24:36;23.13;;;5.83;;
77581;SDS011;66726;52.388;9.986;2023-03-13T05:27:08;20.73;;;5.23;;
77581;SDS011;66726;52.388;9.986;2023-03-13T05:29:41;17.03;;;5.37;;
77581;SDS011;66726;52.388;9.986;2023-03-13T05:32:15;19.07;;;4.80;;
77581;SDS011;66726;52.388;9.986;2023-03-13T05:34:47;18.53;;;4.57;;
77581;SDS011;66726;52.388;9.986;2023-03-13T05:37:19;22.13;;;5.07;;
77581;SDS011;66726;52.388;9.986;2023-03-13T05:39:51;24.53;;;6.03;;
77581;SDS011;66726;52.388;9.986;2023-03-13T05:42:22;20.57;;;4.97;;
77581;SDS011;66726;52.388;9.986;2023-03-13T05:44:56;20.53;;;4.87;;
77581;SDS011;66726;52.388;9.986;2023-03-13T05:47:27;17.60;;;5.20;;
77581;SDS011;66726;52.388;9.986;2023-03-13T05:49:59;14.03;;;4.17;;
77581;SDS011;66726;52.388;9.986;2023-03-13T05:52:32;20.37;;;4.87;;
77581;SDS011;66726;52.388;9.986;2023-03-13T05:55:03;17.33;;;3.93;;
77581;SDS011;66726;52.388;9.986;2023-03-13T05:57:35;21.90;;;4.40;;
77581;SDS011;66726;52.388;9.986;2023-03-13T06:00:12;17.00;;;4.00;;
77581;SDS011;66726;52.388;9.986;2023-03-13T06:02:46;15.53;;;4.13;;
77581;SDS011;66726;52.388;9.986;2023-03-13T06:05:17;13.87;;;4.23;;
77581;SDS011;66726;52.388;9.986;2023-03-13T06:07:49;20.20;;;4.90;;
77581;SDS011;66726;52.388;9.986;2023-03-13T06:10:21;13.63;;;4.10;;
77581;SDS011;66726;52.388;9.986;2023-03-13T06:12:53;12.03;;;4.07;;
77581;SDS011;66726;52.388;9.986;2023-03-13T06:15:50;16.23;;;4.43;;
77581;SDS011;66726;52.388;9.986;2023-03-13T06:18:24;18.20;;;4.53;;
77581;SDS011;66726;52.388;9.986;2023-03-13T06:20:58;17.50;;;4.27;;
77581;SDS011;66726;52.388;9.986;2023-03-13T06:23:31;18.17;;;4.20;;
77581;SDS011;66726;52.388;9.986;2023-03-13T06:26:03;17.17;;;3.60;;
77581;SDS011;66726;52.388;9.986;2023-03-13T06:28:35;15.40;;;4.47;;
77581;SDS011;66726;52.388;9.986;2023-03-13T06:31:09;15.40;;;4.40;;
77581;SDS011;66726;52.388;9.986;2023-03-13T06:33:40;12.63;;;4.23;;
77581;SDS011;66726;52.388;9.986;2023-03-13T06:36:14;11.23;;;4.20;;
77581;SDS011;66726;52.388;9.986;2023-03-13T06:38:46;17.53;;;4.77;;
77581;SDS011;66726;52.388;9.986;2023-03-13T06:41:18;11.63;;;3.97;;
77581;SDS011;66726;52.388;9.986;2023-03-13T06:43:50;12.87;;;4.77;;
77581;SDS011;66726;52.388;9.986;2023-03-13T06:46:23;16.57;;;4.33;;
77581;SDS011;66726;52.388;9.986;2023-03-13T06:48:56;14.13;;;4.70;;
77581;SDS011;66726;52.388;9.986;2023-03-13T06:51:31;18.33;;;4.50;;
77581;SDS011;66726;52.388;9.986;2023-03-13T06:54:02;13.63;;;4.17;;
77581;SDS011;66726;52.388;9.986;2023-03-13T06:56:34;13.07;;;3.90;;
77581;SDS011;66726;52.388;9.986;2023-03-13T06:59:06;13.07;;;3.90;;
77581;SDS011;66726;52.388;9.986;2023-03-13T07:01:39;12.20;;;3.70;;
77581;SDS011;66726;52.388;9.986;2023-03-13T07:04:11;12.03;;;4.20;;
77581;SDS011;66726;52.388;9.986;2023-03-13T07:06:43;12.60;;;3.57;;
77581;SDS011;66726;52.388;9.986;2023-03-13T07:09:17;11.57;;;3.90;;
77581;SDS011;66726;52.388;9.986;2023-03-13T07:11:48;9.13;;;3.80;;
77581;SDS011;66726;52.388;9.986;2023-03-13T07:14:20;16.97;;;3.63;;
77581;SDS011;66726;52.388;9.986;2023-03-13T07:16:53;9.83;;;3.60;;
77581;SDS011;66726;52.388;9.986;2023-03-13T07:19:27;9.07;;;2.87;;
77581;SDS011;66726;52.388;9.986;2023-03-13T07:21:59;8.10;;;3.07;;
77581;SDS011;66726;52.388;9.986;2023-03-13T07:24:31;9.13;;;3.10;;
77581;SDS011;66726;52.388;9.986;2023-03-13T07:27:03;6.77;;;3.13;;
77581;SDS011;66726;52.388;9.986;2023-03-13T07:29:35;8.40;;;3.17;;
77581;SDS011;66726;52.388;9.986;2023-03-13T07:32:08;7.77;;;2.40;;
77581;SDS011;66726;52.388;9.986;2023-03-13T07:34:40;8.63;;;2.77;;
77581;SDS011;66726;52.388;9.986;2023-03-13T07:37:12;3.53;;;2.30;;
77581;SDS011;66726;52.388;9.986;2023-03-13T07:39:45;5.80;;;2.47;;
77581;SDS011;66726;52.388;9.986;2023-03-13T07:42:17;5.20;;;2.83;;
77581;SDS011;66726;52.388;9.986;2023-03-13T07:44:49;9.00;;;2.53;;
77581;SDS011;66726;52.388;9.986;2023-03-13T07:47:22;3.70;;;2.50;;
77581;SDS011;66726;52.388;9.986;2023-03-13T07:49:54;3.50;;;2.77;;
77581;SDS011;66726;52.388;9.986;2023-03-13T07:52:26;8.30;;;2.50;;
77581;SDS011;66726;52.388;9.986;2023-03-13T07:54:58;5.83;;;2.50;;
77581;SDS011;66726;52.388;9.986;2023-03-13T07:57:29;6.50;;;3.07;;
77581;SDS011;66726;52.388;9.986;2023-03-13T08:00:01;5.30;;;2.80;;
77581;SDS011;66726;52.388;9.986;2023-03-13T08:02:42;4.13;;;3.17;;
77581;SDS011;66726;52.388;9.986;2023-03-13T08:05:15;6.30;;;3.03;;
77581;SDS011;66726;52.388;9.986;2023-03-13T08:07:46;4.60;;;2.63;;
77581;SDS011;66726;52.388;9.986;2023-03-13T08:10:18;6.30;;;2.70;;
77581;SDS011;66726;52.388;9.986;2023-03-13T08:12:50;3.83;;;2.90;;
77581;SDS011;66726;52.388;9.986;2023-03-13T08:15:22;3.77;;;2.53;;
77581;SDS011;66726;52.388;9.986;2023-03-13T08:17:56;5.33;;;2.70;;
77581;SDS011;66726;52.388;9.986;2023-03-13T08:20:28;4.50;;;2.60;;
77581;SDS011;66726;52.388;9.986;2023-03-13T08:23:00;3.53;;;2.50;;
77581;SDS011;66726;52.388;9.986;2023-03-13T08:25:32;3.27;;;2.50;;
77581;SDS011;66726;52.388;9.986;2023-03-13T08:28:03;4.37;;;2.57;;
77581;SDS011;66726;52.388;9.986;2023-03-13T08:30:36;4.10;;;2.37;;
77581;SDS011;66726;52.388;9.986;2023-03-13T08:33:09;4.93;;;2.40;;
77581;SDS011;66726;52.388;9.986;2023-03-13T08:35:42;5.27;;;2.50;;
77581;SDS011;66726;52.388;9.986;2023-03-13T08:38:14;3.43;;;2.30;;
77581;SDS011;66726;52.388;9.986;2023-03-13T08:40:46;2.77;;;2.30;;
77581;SDS011;66726;52.388;9.986;2023-03-13T08:43:22;5.50;;;2.27;;
77581;SDS011;66726;52.388;9.986;2023-03-13T08:45:55;3.93;;;2.57;;
77581;SDS011;66726;52.388;9.986;2023-03-13T08:48:28;4.63;;;3.20;;
77581;SDS011;66726;52.388;9.986;2023-03-13T08:51:01;5.27;;;2.90;;
77581;SDS011;66726;52.388;9.986;2023-03-13T08:53:36;5.47;;;2.80;;
77581;SDS011;66726;52.388;9.986;2023-03-13T08:56:10;5.50;;;3.10;;
77581;SDS011;66726;52.388;9.986;2023-03-13T08:58:47;4.27;;;2.80;;
77581;SDS011;66726;52.388;9.986;2023-03-13T09:01:22;5.87;;;2.90;;
77581;SDS011;66726;52.388;9.986;2023-03-13T09:03:58;4.50;;;3.40;;
77581;SDS011;66726;52.388;9.986;2023-03-13T09:06:31;4.63;;;3.40;;
77581;SDS011;66726;52.388;9.986;2023-03-13T09:09:04;5.97;;;3.17;;
77581;SDS011;66726;52.388;9.986;2023-03-13T09:11:38;4.53;;;2.97;;
77581;SDS011;66726;52.388;9.986;2023-03-13T09:14:12;4.30;;;2.67;;
77581;SDS011;66726;52.388;9.986;2023-03-13T09:16:43;3.80;;;2.70;;
77581;SDS011;66726;52.388;9.986;2023-03-13T09:19:17;6.13;;;2.97;;
77581;SDS011;66726;52.388;9.986;2023-03-13T09:21:50;3.97;;;2.80;;
77581;SDS011;66726;52.388;9.986;2023-03-13T09:24:24;5.93;;;3.00;;
77581;SDS011;66726;52.388;9.986;2023-03-13T09:26:57;5.73;;;3.33;;
77581;SDS011;66726;52.388;9.986;2023-03-13T09:29:30;3.70;;;2.40;;
77581;SDS011;66726;52.388;9.986;2023-03-13T09:32:07;3.80;;;2.77;;
77581;SDS011;66726;52.388;9.986;2023-03-13T09:34:41;4.27;;;2.50;;
77581;SDS011;66726;52.388;9.986;2023-03-13T09:37:13;3.80;;;2.50;;
77581;SDS011;66726;52.388;9.986;2023-03-13T09:39:45;5.10;;;2.47;;
77581;SDS011;66726;52.388;9.986;2023-03-13T09:42:18;3.43;;;2.27;;
77581;SDS011;66726;52.388;9.986;2023-03-13T09:44:58;4.07;;;2.20;;
77581;SDS011;66726;52.388;9.986;2023-03-13T09:47:40;3.23;;;2.67;;
77581;SDS011;66726;52.388;9.986;2023-03-13T09:50:19;2.30;;;2.00;;
77581;SDS011;66726;52.388;9.986;2023-03-13T09:52:58;3.53;;;2.77;;
77581;SDS011;66726;52.388;9.986;2023-03-13T09:55:40;3.33;;;2.57;;
77581;SDS011;66726;52.388;9.986;2023-03-13T09:58:16;3.40;;;2.17;;
77581;SDS011;66726;52.388;9.986;2023-03-13T10:00:55;4.37;;;2.50;;
77581;SDS011;66726;52.388;9.986;2023-03-13T10:03:32;4.07;;;2.83;;
77581;SDS011;66726;52.388;9.986;2023-03-13T10:06:13;3.57;;;2.10;;
77581;SDS011;66726;52.388;9.986;2023-03-13T10:08:48;3.77;;;2.37;;
77581;SDS011;66726;52.388;9.986;2023-03-13T10:11:26;4.17;;;3.10;;
77581;SDS011;66726;52.388;9.986;2023-03-13T10:14:13;4.40;;;2.60;;
77581;SDS011;66726;52.388;9.986;2023-03-13T10:16:58;4.30;;;2.57;;
77581;SDS011;66726;52.388;9.986;2023-03-13T10:19:41;4.77;;;2.30;;
77581;SDS011;66726;52.388;9.986;2023-03-13T10:22:16;3.40;;;2.50;;
77581;SDS011;66726;52.388;9.986;2023-03-13T10:24:56;2.97;;;2.30;;
77581;SDS011;66726;52.388;9.986;2023-03-13T10:27:47;3.10;;;2.57;;
77581;SDS011;66726;52.388;9.986;2023-03-13T10:30:23;5.47;;;2.60;;
77581;SDS011;66726;52.388;9.986;2023-03-13T10:32:58;6.17;;;2.70;;
77581;SDS011;66726;52.388;9.986;2023-03-13T10:35:48;6.60;;;2.33;;
77581;SDS011;66726;52.388;9.986;2023-03-13T10:38:33;3.30;;;2.30;;
77581;SDS011;66726;52.388;9.986;2023-03-13T10:41:19;5.17;;;2.83;;
77581;SDS011;66726;52.388;9.986;2023-03-13T10:44:00;8.30;;;2.60;;
77581;SDS011;66726;52.388;9.986;2023-03-13T10:46:42;4.90;;;2.60;;
77581;SDS011;66726;52.388;9.986;2023-03-13T10:49:19;4.27;;;2.20;;
77581;SDS011;66726;52.388;9.986;2023-03-13T10:51:54;5.43;;;2.53;;
77581;SDS011;66726;52.388;9.986;2023-03-13T10:54:30;6.03;;;2.47;;
77581;SDS011;66726;52.388;9.986;2023-03-13T10:57:26;4.83;;;2.50;;
77581;SDS011;66726;52.388;9.986;2023-03-13T11:00:01;7.40;;;2.47;;
77581;SDS011;66726;52.388;9.986;2023-03-13T11:02:53;2.73;;;2.20;;
77581;SDS011;66726;52.388;9.986;2023-03-13T11:05:29;4.77;;;2.10;;
77581;SDS011;66726;52.388;9.986;2023-03-13T11:08:11;4.37;;;2.90;;
77581;SDS011;66726;52.388;9.986;2023-03-13T11:10:52;4.93;;;2.43;;
77581;SDS011;66726;52.388;9.986;2023-03-13T11:13:32;5.67;;;2.70;;
77581;SDS011;66726;52.388;9.986;2023-03-13T11:16:17;4.53;;;2.50;;
77581;SDS011;66726;52.388;9.986;2023-03-13T11:22:06;3.23;;;2.37;;
77581;SDS011;66726;52.388;9.986;2023-03-13T11:24:56;7.57;;;2.73;;
77581;SDS011;66726;52.388;9.986;2023-03-13T11:27:45;4.97;;;2.40;;
77581;SDS011;66726;52.388;9.986;2023-03-13T11:30:33;4.60;;;2.23;;
77581;SDS011;66726;52.388;9.986;2023-03-13T11:33:32;5.70;;;3.10;;
77581;SDS011;66726;52.388;9.986;2023-03-13T11:36:19;4.93;;;2.10;;
77581;SDS011;66726;52.388;9.986;2023-03-13T11:38:57;4.83;;;2.30;;
77581;SDS011;66726;52.388;9.986;2023-03-13T11:41:50;5.13;;;2.80;;
77581;SDS011;66726;52.388;9.986;2023-03-13T11:44:37;4.77;;;2.40;;
77581;SDS011;66726;52.388;9.986;2023-03-13T11:47:27;4.23;;;2.30;;
77581;SDS011;66726;52.388;9.986;2023-03-13T11:50:17;5.53;;;2.30;;
77581;SDS011;66726;52.388;9.986;2023-03-13T11:53:05;4.57;;;2.63;;
77581;SDS011;66726;52.388;9.986;2023-03-13T11:56:04;3.50;;;2.20;;
77581;SDS011;66726;52.388;9.986;2023-03-13T11:58:49;5.73;;;2.20;;
77581;SDS011;66726;52.388;9.986;2023-03-13T12:01:35;2.73;;;2.23;;
77581;SDS011;66726;52.388;9.986;2023-03-13T12:04:16;7.03;;;2.20;;
77581;SDS011;66726;52.388;9.986;2023-03-13T12:06:57;4.07;;;2.00;;
77581;SDS011;66726;52.388;9.986;2023-03-13T12:09:40;5.53;;;2.13;;
77581;SDS011;66726;52.388;9.986;2023-03-13T12:12:21;4.37;;;2.20;;
77581;SDS011;66726;52.388;9.986;2023-03-13T12:15:05;5.40;;;2.07;;
77581;SDS011;66726;52.388;9.986;2023-03-13T12:17:50;3.00;;;2.00;;
77581;SDS011;66726;52.388;9.986;2023-03-13T12:20:27;4.43;;;1.90;;
77581;SDS011;66726;52.388;9.986;2023-03-13T12:23:16;4.53;;;2.00;;
77581;SDS011;66726;52.388;9.986;2023-03-13T12:25:52;5.00;;;2.00;;
77581;SDS011;66726;52.388;9.986;2023-03-13T12:28:33;3.63;;;2.00;;
77581;SDS011;66726;52.388;9.986;2023-03-13T12:31:17;3.67;;;2.03;;
77581;SDS011;66726;52.388;9.986;2023-03-13T12:33:58;3.10;;;2.03;;
77581;SDS011;66726;52.388;9.986;2023-03-13T12:36:39;4.73;;;2.30;;
77581;SDS011;66726;52.388;9.986;2023-03-13T12:39:24;4.73;;;1.80;;
77581;SDS011;66726;52.388;9.986;2023-03-13T12:42:15;4.70;;;1.70;;
77581;SDS011;66726;52.388;9.986;2023-03-13T12:44:59;3.07;;;1.97;;
77581;SDS011;66726;52.388;9.986;2023-03-13T12:47:37;3.30;;;1.90;;
77581;SDS011;66726;52.388;9.986;2023-03-13T12:50:52;3.93;;;2.20;;
77581;SDS011;66726;52.388;9.986;2023-03-13T12:54:01;3.53;;;2.13;;
77581;SDS011;66726;52.388;9.986;2023-03-13T12:57:17;3.33;;;1.90;;
77581;SDS011;66726;52.388;9.986;2023-03-13T13:00:20;3.20;;;2.23;;
77581;SDS011;66726;52.388;9.986;2023-03-13T13:03:05;2.60;;;1.90;;
77581;SDS011;66726;52.388;9.986;2023-03-13T13:05:58;5.00;;;2.37;;
77581;SDS011;66726;52.388;9.986;2023-03-13T13:08:34;3.63;;;1.77;;
77581;SDS011;66726;52.388;9.986;2023-03-13T13:17:51;3.80;;;2.00;;
77581;SDS011;66726;52.388;9.986;2023-03-13T13:20:36;4.67;;;1.90;;
77581;SDS011;66726;52.388;9.986;2023-03-13T13:23:29;2.80;;;1.77;;
77581;SDS011;66726;52.388;9.986;2023-03-13T13:32:36;6.83;;;1.93;;
77581;SDS011;66726;52.388;9.986;2023-03-13T13:35:20;3.07;;;1.80;;
77581;SDS011;66726;52.388;9.986;2023-03-13T13:41:03;3.70;;;1.57;;
77581;SDS011;66726;52.388;9.986;2023-03-13T13:46:57;2.90;;;1.77;;
77581;SDS011;66726;52.388;9.986;2023-03-13T13:49:31;8.27;;;1.80;;
77581;SDS011;66726;52.388;9.986;2023-03-13T13:58:16;2.53;;;1.67;;
77581;SDS011;66726;52.388;9.986;2023-03-13T14:00:54;6.00;;;1.80;;
77581;SDS011;66726;52.388;9.986;2023-03-13T14:03:38;2.50;;;1.50;;
77581;SDS011;66726;52.388;9.986;2023-03-13T14:06:13;3.03;;;1.60;;
77581;SDS011;66726;52.388;9.986;2023-03-13T14:08:52;2.47;;;1.33;;
77581;SDS011;66726;52.388;9.986;2023-03-13T14:11:42;7.83;;;2.30;;
77581;SDS011;66726;52.388;9.986;2023-03-13T14:14:14;2.40;;;1.20;;
77581;SDS011;66726;52.388;9.986;2023-03-13T14:16:48;4.27;;;1.40;;
77581;SDS011;66726;52.388;9.986;2023-03-13T14:19:26;2.07;;;1.30;;
77581;SDS011;66726;52.388;9.986;2023-03-13T14:22:02;2.23;;;1.20;;
77581;SDS011;66726;52.388;9.986;2023-03-13T14:24:36;2.57;;;1.30;;
77581;SDS011;66726;52.388;9.986;2023-03-13T14:27:23;2.77;;;1.47;;
77581;SDS011;66726;52.388;9.986;2023-03-13T14:30:01;2.83;;;1.20;;
77581;SDS011;66726;52.388;9.986;2023-03-13T14:32:35;2.00;;;1.43;;
77581;SDS011;66726;52.388;9.986;2023-03-13T14:35:08;2.27;;;1.30;;
77581;SDS011;66726;52.388;9.986;2023-03-13T14:37:46;5.20;;;1.40;;
77581;SDS011;66726;52.388;9.986;2023-03-13T14:40:28;1.87;;;1.37;;
77581;SDS011;66726;52.388;9.986;2023-03-13T14:43:16;2.13;;;1.90;;
77581;SDS011;66726;52.388;9.986;2023-03-13T14:45:51;4.47;;;1.20;;
77581;SDS011;66726;52.388;9.986;2023-03-13T14:48:32;2.47;;;1.30;;
77581;SDS011;66726;52.388;9.986;2023-03-13T14:51:07;3.27;;;1.40;;
77581;SDS011;66726;52.388;9.986;2023-03-13T14:53:54;3.97;;;1.30;;
77581;SDS011;66726;52.388;9.986;2023-03-13T14:56:32;2.40;;;1.10;;
77581;SDS011;66726;52.388;9.986;2023-03-13T14:59:11;3.17;;;1.30;;
77581;SDS011;66726;52.388;9.986;2023-03-13T15:01:56;2.70;;;1.50;;
77581;SDS011;66726;52.388;9.986;2023-03-13T15:04:48;4.33;;;1.23;;
77581;SDS011;66726;52.388;9.986;2023-03-13T15:07:26;4.63;;;1.20;;
77581;SDS011;66726;52.388;9.986;2023-03-13T15:10:21;1.67;;;1.40;;
77581;SDS011;66726;52.388;9.986;2023-03-13T15:13:12;3.73;;;1.20;;
77581;SDS011;66726;52.388;9.986;2023-03-13T15:15:52;1.67;;;1.20;;
77581;SDS011;66726;52.388;9.986;2023-03-13T15:18:42;7.03;;;1.37;;
77581;SDS011;66726;52.388;9.986;2023-03-13T15:21:18;1.50;;;1.40;;
77581;SDS011;66726;52.388;9.986;2023-03-13T15:23:52;1.90;;;1.20;;
77581;SDS011;66726;52.388;9.986;2023-03-13T15:26:26;5.10;;;3.47;;
77581;SDS011;66726;52.388;9.986;2023-03-13T15:28:57;19.70;;;13.93;;
77581;SDS011;66726;52.388;9.986;2023-03-13T15:31:31;14.60;;;9.37;;
77581;SDS011;66726;52.388;9.986;2023-03-13T15:34:05;6.23;;;4.30;;
77581;SDS011;66726;52.388;9.986;2023-03-13T15:36:42;7.77;;;2.57;;
77581;SDS011;66726;52.388;9.986;2023-03-13T15:39:15;3.73;;;2.83;;
77581;SDS011;66726;52.388;9.986;2023-03-13T15:41:49;2.93;;;1.93;;
77581;SDS011;66726;52.388;9.986;2023-03-13T15:44:21;4.37;;;3.93;;
77581;SDS011;66726;52.388;9.986;2023-03-13T15:46:54;10.30;;;5.07;;
77581;SDS011;66726;52.388;9.986;2023-03-13T15:49:26;6.00;;;5.27;;
77581;SDS011;66726;52.388;9.986;2023-03-13T15:51:58;3.60;;;2.97;;
77581;SDS011;66726;52.388;9.986;2023-03-13T15:54:33;5.80;;;4.23;;
77581;SDS011;66726;52.388;9.986;2023-03-13T15:57:04;6.00;;;5.57;;
77581;SDS011;66726;52.388;9.986;2023-03-13T15:59:38;4.40;;;4.00;;
77581;SDS011;66726;52.388;9.986;2023-03-13T16:02:14;9.57;;;8.60;;